An Xiu Shan — BRQV — position and weather

sailwx.info

Track history (hours):
 
Tides and Currents Weather Stations Pressure Air Temp Water Temp Dewpoint Dewpoint Depression Visibility Wind Speed Wind Dir Waves Ship Positions

An Xiu Shan

Last reported at 2015-Sep-03 00:10 UTC. Time now 2015-Sep-03 04:30 UTC.
Position N 31°19' E 122°52'.

Length 199 m; draft 10.5 m.

Type: Cargo ship. MMSI: 413195000.

Date/timePositionNaut miles runAvg speedWind from/ knotsBaromVisibWave heightAir tempDewpointWater temp
2015-Sep-03 00:10N 31°19' E 122°52'31710.5
2015-Sep-01 18:05N 36°36' E 122°54'611.1
2015-Sep-01 17:32N 36°42' E 122°54'1110.9
2015-Sep-01 16:33N 36°53' E 122°52'1110.8
2015-Sep-01 15:34N 37°03' E 122°48'1110.7
2015-Sep-01 14:32N 37°14' E 122°48'9 9.3
2015-Sep-01 13:33N 37°23' E 122°48'9 8.5
2015-Sep-01 12:33N 37°31' E 122°43'18 8.8
2015-Sep-01 10:30N 37°44' E 122°27'17610.4
2015-Aug-31 17:34N 39°47' E 119°46'10 9.6
2015-Aug-31 16:34N 39°55' E 119°40'0 0.3
2015-Aug-31 15:33N 39°55' E 119°41'0 0.0
2015-Aug-31 14:33N 39°55' E 119°41'0 0.0
2015-Aug-31 13:33N 39°55' E 119°41'0 0.0
2015-Aug-31 12:33N 39°55' E 119°41'0 0.0
2015-Aug-31 11:33N 39°55' E 119°41'0 0.0
2015-Aug-31 10:33N 39°55' E 119°41'0 0.0
2015-Aug-31 09:33N 39°55' E 119°41'0 0.0
2015-Aug-31 08:33N 39°55' E 119°41'0 0.0
2015-Aug-31 07:27N 39°55' E 119°41'0 0.0
2015-Aug-31 06:27N 39°55' E 119°41'0 0.0
2015-Aug-31 05:33N 39°55' E 119°41'0 0.0
2015-Aug-31 04:03N 39°55' E 119°41'0 0.0
2015-Aug-31 03:33N 39°55' E 119°41'0 0.0
2015-Aug-31 02:33N 39°55' E 119°41'0 0.0
2015-Aug-31 01:27N 39°55' E 119°41'0 0.0
2015-Aug-31 00:33N 39°55' E 119°41'0 0.0
2015-Aug-30 23:33N 39°55' E 119°41'0 0.0
2015-Aug-30 22:33N 39°55' E 119°41'0 0.0
2015-Aug-30 21:33N 39°55' E 119°41'0 0.0
2015-Aug-30 20:33N 39°55' E 119°41'0 0.0
2015-Aug-30 19:33N 39°55' E 119°41'0 0.0
2015-Aug-30 18:33N 39°55' E 119°41'0 0.0
2015-Aug-30 17:33N 39°55' E 119°41'0 0.0
2015-Aug-30 16:33N 39°55' E 119°41'0 0.1
2015-Aug-30 15:33N 39°55' E 119°41'6 6.1
2015-Aug-30 14:33N 39°49' E 119°41'5 0.4
2015-Aug-30 00:32N 39°44' E 119°38'0 0.0
2015-Aug-29 23:26N 39°44' E 119°38'0 0.0
2015-Aug-29 11:14N 39°44' E 119°38'0 0.1
2015-Aug-29 10:14N 39°44' E 119°38'0 0.1
2015-Aug-29 09:26N 39°44' E 119°38'0 0.1
2015-Aug-29 08:32N 39°44' E 119°38'0 0.0
2015-Aug-29 07:14N 39°44' E 119°38'0 0.0
2015-Aug-29 05:26N 39°44' E 119°38'0 0.0
2015-Aug-29 04:20N 39°44' E 119°38'0 0.0
2015-Aug-29 00:20N 39°44' E 119°38'0 0.0
2015-Aug-28 23:32N 39°44' E 119°38'0 0.0
2015-Aug-28 22:32N 39°44' E 119°38'0 0.1
2015-Aug-28 21:32N 39°44' E 119°38'0 0.1
2015-Aug-28 20:32N 39°44' E 119°38'0 0.0
2015-Aug-28 19:32N 39°44' E 119°38'0 0.1
2015-Aug-28 18:26N 39°44' E 119°38'0 0.1
2015-Aug-28 15:20N 39°44' E 119°38'0 0.1
2015-Aug-28 14:32N 39°44' E 119°39'0 0.0
2015-Aug-28 12:20N 39°44' E 119°38'0 0.1
2015-Aug-28 10:32N 39°44' E 119°38'0 0.0
2015-Aug-28 09:32N 39°44' E 119°38'0 0.0
2015-Aug-28 07:20N 39°44' E 119°38'0 0.0
2015-Aug-28 06:14N 39°44' E 119°38'0 0.0
2015-Aug-28 05:32N 39°44' E 119°38'0 0.1
2015-Aug-28 04:26N 39°44' E 119°39'0 0.0
2015-Aug-28 02:32N 39°44' E 119°39'0 0.1
2015-Aug-28 01:26N 39°44' E 119°39'0 0.0
2015-Aug-28 00:20N 39°44' E 119°39'0 0.0
2015-Aug-27 21:32N 39°44' E 119°39'0 0.0
2015-Aug-27 18:20N 39°44' E 119°39'0 0.0
2015-Aug-27 17:14N 39°44' E 119°39'0 0.0
2015-Aug-27 16:32N 39°44' E 119°39'0 0.0
2015-Aug-27 12:26N 39°44' E 119°38'0 0.0
2015-Aug-27 09:28N 39°44' E 119°38'161 8.0
2015-Aug-26 13:22N 37°57' E 122°12'910.4
2015-Aug-26 12:28N 37°52' E 122°22'910.2
2015-Aug-26 11:33N 37°46' E 122°32'1010.3
2015-Aug-26 10:33N 37°40' E 122°42'1210.2
2015-Aug-26 09:24N 37°30' E 122°49'910.4
2015-Aug-26 08:33N 37°21' E 122°53'9 9.3
2015-Aug-26 07:33N 37°12' E 122°53'1211.9
2015-Aug-26 06:33N 37°00' E 122°54'1212.2
2015-Aug-26 05:33N 36°48' E 122°54'1211.6
2015-Aug-26 04:33N 36°37' E 122°54'1111.3
2015-Aug-26 03:33N 36°25' E 122°54'1111.3
2015-Aug-26 02:33N 36°14' E 122°53'287 9.8
2015-Aug-24 21:16N 31°28' E 122°35'6 8.3
2015-Aug-24 20:33N 31°22' E 122°33'11 7.7
2015-Aug-24 19:09N 31°11' E 122°33'4 6.8
2015-Aug-24 18:31N 31°07' E 122°33'7 7.0
2015-Aug-24 17:33N 31°05' E 122°26'1111.5
2015-Aug-24 16:33N 31°09' E 122°13'1514.5
2015-Aug-24 15:33N 31°15' E 121°58'1414.2
2015-Aug-24 14:33N 31°20' E 121°42'1211.8
2015-Aug-24 13:33N 31°25' E 121°30'1111.0
2015-Aug-24 12:33N 31°33' E 121°20'6 5.4
2015-Aug-24 11:33N 31°38' E 121°17'0 0.1
2015-Aug-24 10:29N 31°38' E 121°17'0 0.0
2015-Aug-24 09:32N 31°38' E 121°17'0 0.1
2015-Aug-24 08:32N 31°38' E 121°17'0 0.1
2015-Aug-24 07:32N 31°38' E 121°17'0 0.1
2015-Aug-24 06:32N 31°38' E 121°17'0 0.0
2015-Aug-24 05:32N 31°38' E 121°17'0 0.0
2015-Aug-24 04:29N 31°38' E 121°17'0 0.0
2015-Aug-24 03:32N 31°38' E 121°17'0 0.0
2015-Aug-24 02:29N 31°38' E 121°17'0 0.0
2015-Aug-24 01:32N 31°38' E 121°17'0 0.0
2015-Aug-24 00:32N 31°38' E 121°17'  
Track history (hours):
 
Tides and Currents Weather Stations Pressure Air Temp Water Temp Dewpoint Dewpoint Depression Visibility Wind Speed Wind Dir Waves Ship Positions

An Xiu Shan

Last reported at 2015-Sep-03 00:10 UTC. Time now 2015-Sep-03 04:30 UTC.
Position N 31°19' E 122°52'.

Length 199 m; draft 10.5 m.

Type: Cargo ship. MMSI: 413195000.

Date/timePositionNaut miles runAvg speedWind from/ knotsBaromVisibWave heightAir tempDewpointWater temp
2015-Sep-03 00:10N 31°19' E 122°52'31710.5
2015-Sep-01 18:05N 36°36' E 122°54'611.1
2015-Sep-01 17:32N 36°42' E 122°54'1110.9
2015-Sep-01 16:33N 36°53' E 122°52'1110.8
2015-Sep-01 15:34N 37°03' E 122°48'1110.7
2015-Sep-01 14:32N 37°14' E 122°48'9 9.3
2015-Sep-01 13:33N 37°23' E 122°48'9 8.5
2015-Sep-01 12:33N 37°31' E 122°43'18 8.8
2015-Sep-01 10:30N 37°44' E 122°27'17610.4
2015-Aug-31 17:34N 39°47' E 119°46'10 9.6
2015-Aug-31 16:34N 39°55' E 119°40'0 0.3
2015-Aug-31 15:33N 39°55' E 119°41'0 0.0
2015-Aug-31 14:33N 39°55' E 119°41'0 0.0
2015-Aug-31 13:33N 39°55' E 119°41'0 0.0
2015-Aug-31 12:33N 39°55' E 119°41'0 0.0
2015-Aug-31 11:33N 39°55' E 119°41'0 0.0
2015-Aug-31 10:33N 39°55' E 119°41'0 0.0
2015-Aug-31 09:33N 39°55' E 119°41'0 0.0
2015-Aug-31 08:33N 39°55' E 119°41'0 0.0
2015-Aug-31 07:27N 39°55' E 119°41'0 0.0
2015-Aug-31 06:27N 39°55' E 119°41'0 0.0
2015-Aug-31 05:33N 39°55' E 119°41'0 0.0
2015-Aug-31 04:03N 39°55' E 119°41'0 0.0
2015-Aug-31 03:33N 39°55' E 119°41'0 0.0
2015-Aug-31 02:33N 39°55' E 119°41'0 0.0
2015-Aug-31 01:27N 39°55' E 119°41'0 0.0
2015-Aug-31 00:33N 39°55' E 119°41'0 0.0
2015-Aug-30 23:33N 39°55' E 119°41'0 0.0
2015-Aug-30 22:33N 39°55' E 119°41'0 0.0
2015-Aug-30 21:33N 39°55' E 119°41'0 0.0
2015-Aug-30 20:33N 39°55' E 119°41'0 0.0
2015-Aug-30 19:33N 39°55' E 119°41'0 0.0
2015-Aug-30 18:33N 39°55' E 119°41'0 0.0
2015-Aug-30 17:33N 39°55' E 119°41'0 0.0
2015-Aug-30 16:33N 39°55' E 119°41'0 0.1
2015-Aug-30 15:33N 39°55' E 119°41'6 6.1
2015-Aug-30 14:33N 39°49' E 119°41'5 0.4
2015-Aug-30 00:32N 39°44' E 119°38'0 0.0
2015-Aug-29 23:26N 39°44' E 119°38'0 0.0
2015-Aug-29 11:14N 39°44' E 119°38'0 0.1
2015-Aug-29 10:14N 39°44' E 119°38'0 0.1
2015-Aug-29 09:26N 39°44' E 119°38'0 0.1
2015-Aug-29 08:32N 39°44' E 119°38'0 0.0
2015-Aug-29 07:14N 39°44' E 119°38'0 0.0
2015-Aug-29 05:26N 39°44' E 119°38'0 0.0
2015-Aug-29 04:20N 39°44' E 119°38'0 0.0
2015-Aug-29 00:20N 39°44' E 119°38'0 0.0
2015-Aug-28 23:32N 39°44' E 119°38'0 0.0
2015-Aug-28 22:32N 39°44' E 119°38'0 0.1
2015-Aug-28 21:32N 39°44' E 119°38'0 0.1
2015-Aug-28 20:32N 39°44' E 119°38'0 0.0
2015-Aug-28 19:32N 39°44' E 119°38'0 0.1
2015-Aug-28 18:26N 39°44' E 119°38'0 0.1
2015-Aug-28 15:20N 39°44' E 119°38'0 0.1
2015-Aug-28 14:32N 39°44' E 119°39'0 0.0
2015-Aug-28 12:20N 39°44' E 119°38'0 0.1
2015-Aug-28 10:32N 39°44' E 119°38'0 0.0
2015-Aug-28 09:32N 39°44' E 119°38'0 0.0
2015-Aug-28 07:20N 39°44' E 119°38'0 0.0
2015-Aug-28 06:14N 39°44' E 119°38'0 0.0
2015-Aug-28 05:32N 39°44' E 119°38'0 0.1
2015-Aug-28 04:26N 39°44' E 119°39'0 0.0
2015-Aug-28 02:32N 39°44' E 119°39'0 0.1
2015-Aug-28 01:26N 39°44' E 119°39'0 0.0
2015-Aug-28 00:20N 39°44' E 119°39'0 0.0
2015-Aug-27 21:32N 39°44' E 119°39'0 0.0
2015-Aug-27 18:20N 39°44' E 119°39'0 0.0
2015-Aug-27 17:14N 39°44' E 119°39'0 0.0
2015-Aug-27 16:32N 39°44' E 119°39'0 0.0
2015-Aug-27 12:26N 39°44' E 119°38'0 0.0
2015-Aug-27 09:28N 39°44' E 119°38'161 8.0
2015-Aug-26 13:22N 37°57' E 122°12'910.4
2015-Aug-26 12:28N 37°52' E 122°22'910.2
2015-Aug-26 11:33N 37°46' E 122°32'1010.3
2015-Aug-26 10:33N 37°40' E 122°42'1210.2
2015-Aug-26 09:24N 37°30' E 122°49'910.4
2015-Aug-26 08:33N 37°21' E 122°53'9 9.3
2015-Aug-26 07:33N 37°12' E 122°53'1211.9
2015-Aug-26 06:33N 37°00' E 122°54'1212.2
2015-Aug-26 05:33N 36°48' E 122°54'1211.6
2015-Aug-26 04:33N 36°37' E 122°54'1111.3
2015-Aug-26 03:33N 36°25' E 122°54'1111.3
2015-Aug-26 02:33N 36°14' E 122°53'287 9.8
2015-Aug-24 21:16N 31°28' E 122°35'6 8.3
2015-Aug-24 20:33N 31°22' E 122°33'11 7.7
2015-Aug-24 19:09N 31°11' E 122°33'4 6.8
2015-Aug-24 18:31N 31°07' E 122°33'7 7.0
2015-Aug-24 17:33N 31°05' E 122°26'1111.5
2015-Aug-24 16:33N 31°09' E 122°13'1514.5
2015-Aug-24 15:33N 31°15' E 121°58'1414.2
2015-Aug-24 14:33N 31°20' E 121°42'1211.8
2015-Aug-24 13:33N 31°25' E 121°30'1111.0
2015-Aug-24 12:33N 31°33' E 121°20'6 5.4
2015-Aug-24 11:33N 31°38' E 121°17'0 0.1
2015-Aug-24 10:29N 31°38' E 121°17'0 0.0
2015-Aug-24 09:32N 31°38' E 121°17'0 0.1
2015-Aug-24 08:32N 31°38' E 121°17'0 0.1
2015-Aug-24 07:32N 31°38' E 121°17'0 0.1
2015-Aug-24 06:32N 31°38' E 121°17'0 0.0
2015-Aug-24 05:32N 31°38' E 121°17'0 0.0
2015-Aug-24 04:29N 31°38' E 121°17'0 0.0
2015-Aug-24 03:32N 31°38' E 121°17'0 0.0
2015-Aug-24 02:29N 31°38' E 121°17'0 0.0
2015-Aug-24 01:32N 31°38' E 121°17'0 0.0
2015-Aug-24 00:32N 31°38' E 121°17'  

Dump ship's entire track history